首页
METAR-TAF:

METAR-TAF

机场 :

上海浦东国际机场

上海 / 浦东, 中华人民共和国

纬度: 31-07N, 经度: 121-46E, 海拔: 4米

当前天气观测

该预报发布于43分钟前的16:00 UTC
风速16节,风向北转西北
温度 13°C
湿度 94%
气压 1023 hPa
能见度10公里或以上
多云层高于1500英尺

METAR: ZSPD 211600Z 33008MPS 9999 BKN015 13/12 Q1023 BECMG TL1700 BKN013

时间: 00:43 (16:43 UTC)

预报

该预报发布于7小时和17分钟前的09:26 UTC
预报有效从21日的 12点(UTC)到 22日的 12点(UTC)
风速12节,风向
能見度: 6000
多云层高于1100英尺

TAF: ZSPD 210926Z 2112/2212 35006MPS 6000 BKN011 TX14/2206Z TN09/2121Z

超过4000个机场的气象观测和天气预报(METAR&TAF报告)。

可查询的气象台以黄色和红色小点在地图上表示。

将鼠标移到小点上方,可查看气象台名称。

然后点击查看天气观测和预报。

如需切换地图:点击带黑十字的绿色按钮放大地图;点击带横线的绿色按钮缩小地图;或者点击绿色箭头查看邻近地区的地图。


METAR-TAF: